Time;durP1;ratioP1;P1;durP2;ratioP2;P2;SDS_P1;SDS_P2;PMS_P1;PMS_P2;Temp;Humidity;BMP_temperature;BMP_pressure;BME280_temperature;BME280_humidity;BME280_pressure;Samples;Min_cycle;Max_cycle;Signal;HPM_P1;HPM_P2
2023/11/17 00:00:50;;;;;;;21.50;12.90;;;6.70;79.60;;;;;;5036871;28;20390;-70
2023/11/17 00:03:15;;;;;;;22.65;12.52;;;6.70;79.80;;;;;;5031275;28;20738;-72
2023/11/17 00:05:41;;;;;;;19.50;12.40;;;6.70;80.90;;;;;;5013174;28;20482;-72
2023/11/17 00:08:07;;;;;;;18.17;12.57;;;6.70;78.80;;;;;;5030888;28;20423;-71
2023/11/17 00:10:34;;;;;;;20.73;12.70;;;6.70;79.90;;;;;;5030969;28;20908;-70
2023/11/17 00:13:00;;;;;;;19.83;12.27;;;6.70;79.70;;;;;;5031377;28;20393;-70
2023/11/17 00:15:25;;;;;;;18.47;11.30;;;6.70;79.70;;;;;;5030898;28;20578;-69
2023/11/17 00:17:51;;;;;;;17.77;11.60;;;6.80;77.70;;;;;;5030946;28;20383;-70
2023/11/17 00:20:19;;;;;;;18.17;12.60;;;6.70;77.20;;;;;;5030664;28;20461;-71
2023/11/17 00:22:45;;;;;;;19.95;12.35;;;6.60;79.30;;;;;;5030933;28;20797;-70
2023/11/17 00:25:10;;;;;;;16.90;12.00;;;6.70;77.30;;;;;;5030836;28;20379;-71
2023/11/17 00:27:37;;;;;;;18.63;12.40;;;6.80;76.30;;;;;;5030678;28;20493;-70
2023/11/17 00:30:05;;;;;;;19.75;11.90;;;6.70;76.60;;;;;;5030517;28;20402;-70
2023/11/17 00:32:31;;;;;;;15.25;12.10;;;6.70;75.90;;;;;;5031079;28;20525;-71
2023/11/17 00:34:56;;;;;;;17.90;13.83;;;6.60;78.00;;;;;;5030853;28;20855;-71
2023/11/17 00:37:25;;;;;;;22.40;13.20;;;6.40;81.50;;;;;;5031169;28;20415;-71
2023/11/17 00:39:50;;;;;;;22.50;12.95;;;6.40;83.70;;;;;;5031073;28;20394;-70
2023/11/17 00:42:16;;;;;;;18.00;12.65;;;6.40;84.70;;;;;;5031313;28;20383;-71
2023/11/17 00:44:41;;;;;;;21.10;13.50;;;6.40;84.20;;;;;;5031527;28;20387;-71
2023/11/17 00:47:07;;;;;;;21.10;13.20;;;6.20;86.90;;;;;;5030641;28;20786;-71
2023/11/17 00:49:33;;;;;;;18.37;12.30;;;6.30;87.30;;;;;;5031708;28;20890;-71
2023/11/17 00:51:58;;;;;;;26.47;12.10;;;6.40;85.30;;;;;;5032339;28;20383;-71
2023/11/17 00:54:27;;;;;;;20.37;13.23;;;6.40;83.80;;;;;;5032490;28;20383;-71
2023/11/17 00:56:54;;;;;;;19.75;12.82;;;6.40;82.80;;;;;;5031679;28;20484;-71
2023/11/17 00:59:20;;;;;;;19.05;13.07;;;6.30;84.20;;;;;;5032424;28;20387;-70
2023/11/17 01:01:45;;;;;;;19.40;12.47;;;6.40;84.90;;;;;;5032315;28;20375;-70
2023/11/17 01:04:12;;;;;;;20.87;12.87;;;6.60;82.10;;;;;;5031500;28;20490;-71
2023/11/17 01:06:38;;;;;;;21.00;12.90;;;6.70;79.70;;;;;;5030628;28;20474;-71
2023/11/17 01:09:04;;;;;;;23.40;13.82;;;6.50;79.80;;;;;;5030579;28;20431;-71
2023/11/17 01:11:30;;;;;;;20.00;13.32;;;6.30;83.60;;;;;;5030724;28;20387;-71
2023/11/17 01:13:55;;;;;;;22.00;13.87;;;6.30;86.30;;;;;;5034048;28;20423;-70
2023/11/17 01:16:21;;;;;;;24.63;13.70;;;6.50;83.20;;;;;;5034615;28;20403;-71
2023/11/17 01:18:47;;;;;;;20.98;14.10;;;6.50;81.60;;;;;;5034339;28;20757;-71
2023/11/17 01:21:12;;;;;;;21.75;14.50;;;6.50;80.90;;;;;;5034467;28;20394;-71
2023/11/17 01:23:38;;;;;;;23.23;15.10;;;6.60;81.30;;;;;;5035124;28;20533;-70
2023/11/17 01:26:04;;;;;;;23.27;15.70;;;6.40;81.40;;;;;;5035148;28;20409;-71
2023/11/17 01:28:30;;;;;;;27.08;17.27;;;6.40;82.70;;;;;;5034990;28;20826;-71
2023/11/17 01:30:55;;;;;;;26.58;16.88;;;6.10;82.60;;;;;;5035204;28;20386;-71
2023/11/17 01:33:21;;;;;;;36.67;20.83;;;5.90;88.70;;;;;;5034865;28;20409;-70
2023/11/17 01:35:47;;;;;;;43.20;23.97;;;5.80;93.80;;;;;;5036962;28;20497;-71
2023/11/17 01:38:14;;;;;;;36.28;21.80;;;5.70;95.60;;;;;;5043625;28;20406;-71
2023/11/17 01:40:39;;;;;;;37.00;20.88;;;5.60;96.50;;;;;;5018725;28;20398;-71
2023/11/17 01:43:06;;;;;;;30.13;20.20;;;5.80;96.70;;;;;;5033355;28;20387;-71
2023/11/17 01:45:33;;;;;;;30.45;19.33;;;5.90;94.40;;;;;;5033782;28;20383;-71
2023/11/17 01:47:59;;;;;;;32.25;19.23;;;6.00;91.90;;;;;;5033523;28;20388;-71
2023/11/17 01:50:25;;;;;;;31.40;19.20;;;6.00;89.20;;;;;;5033189;28;20379;-70
2023/11/17 01:52:51;;;;;;;29.25;18.88;;;6.00;88.90;;;;;;5033525;28;20833;-70
2023/11/17 01:55:18;;;;;;;32.85;20.63;;;6.00;88.30;;;;;;5033496;28;20379;-70
2023/11/17 01:57:45;;;;;;;31.35;20.52;;;6.00;89.30;;;;;;5033106;28;20499;-71
2023/11/17 02:00:15;;;;;;;29.05;19.52;;;6.00;88.60;;;;;;5033161;28;20383;-70
2023/11/17 02:02:45;;;;;;;29.92;19.80;;;6.00;88.10;;;;;;5033704;28;20466;-70
2023/11/17 02:05:14;;;;;;;29.17;19.47;;;5.90;90.20;;;;;;5033137;28;20605;-69
2023/11/17 02:08:04;;;;;;;28.75;19.67;;;5.90;91.70;;;;;;5033080;28;20391;-70
2023/11/17 02:10:40;;;;;;;31.80;20.50;;;6.00;89.80;;;;;;5034005;28;20421;-70
2023/11/17 02:13:13;;;;;;;29.35;19.88;;;6.00;88.50;;;;;;5033058;28;20464;-70
2023/11/17 02:15:41;;;;;;;30.30;20.60;;;5.90;88.40;;;;;;5032797;28;20413;-71
2023/11/17 02:18:13;;;;;;;39.07;21.40;;;5.70;90.50;;;;;;5015068;28;20468;-70
2023/11/17 02:20:41;;;;;;;36.13;23.10;;;5.40;94.90;;;;;;5032631;28;20470;-70
2023/11/17 02:23:15;;;;;;;37.70;24.27;;;5.30;97.30;;;;;;5032887;28;20470;-70
2023/11/17 02:26:15;;;;;;;33.72;23.25;;;5.10;99.90;;;;;;5032659;28;20870;-70
2023/11/17 02:28:59;;;;;;;30.02;21.90;;;5.00;99.90;;;;;;5032676;28;20382;-70
2023/11/17 02:31:35;;;;;;;36.50;23.35;;;5.00;99.90;;;;;;5033026;28;20387;-70
2023/11/17 02:34:08;;;;;;;38.00;24.02;;;4.90;99.90;;;;;;5032795;28;20848;-71
2023/11/17 02:36:38;;;;;;;40.85;24.52;;;4.90;99.90;;;;;;5032918;28;20393;-70
2023/11/17 02:39:13;;;;;;;38.80;25.63;;;4.90;99.90;;;;;;5032658;28;20382;-70
2023/11/17 02:41:48;;;;;;;38.28;23.65;;;5.00;99.90;;;;;;5032956;28;20408;-70
2023/11/17 02:44:15;;;;;;;33.40;23.37;;;4.90;99.90;;;;;;5033031;28;20395;-70
2023/11/17 02:46:44;;;;;;;39.72;23.02;;;4.90;99.90;;;;;;5032382;28;20472;-70
2023/11/17 02:49:22;;;;;;;33.38;22.63;;;4.90;99.90;;;;;;5032749;28;20888;-70
2023/11/17 02:51:55;;;;;;;35.72;23.40;;;4.90;99.90;;;;;;5032244;28;20421;-71
2023/11/17 02:54:24;;;;;;;32.15;21.92;;;5.00;99.90;;;;;;5032464;28;20415;-71
2023/11/17 02:56:50;;;;;;;31.90;21.85;;;5.00;99.90;;;;;;5031572;28;20407;-70
2023/11/17 02:59:19;;;;;;;34.67;21.70;;;5.00;99.90;;;;;;5031568;28;20787;-70
2023/11/17 03:01:45;;;;;;;36.60;22.80;;;5.00;99.90;;;;;;5031986;28;20392;-70
2023/11/17 03:04:15;;;;;;;34.47;22.27;;;4.90;99.90;;;;;;5031904;28;20386;-70
2023/11/17 03:06:51;;;;;;;33.77;21.90;;;4.90;99.90;;;;;;5031566;28;20486;-70
2023/11/17 03:09:22;;;;;;;36.65;22.45;;;4.90;99.90;;;;;;5031321;28;20474;-70
2023/11/17 03:11:51;;;;;;;33.90;21.33;;;4.80;99.90;;;;;;5031391;28;20473;-70
2023/11/17 03:14:24;;;;;;;31.70;20.92;;;4.80;99.90;;;;;;5031964;28;20413;-70
2023/11/17 03:16:52;;;;;;;36.22;21.58;;;4.80;99.90;;;;;;5033795;28;20468;-71
2023/11/17 03:19:18;;;;;;;38.80;21.83;;;4.80;99.90;;;;;;5032816;28;20872;-70
2023/11/17 03:21:44;;;;;;;31.30;21.88;;;4.70;99.90;;;;;;5031398;28;20430;-70
2023/11/17 03:24:28;;;;;;;34.90;24.50;;;4.60;99.90;;;;;;5031577;28;20402;-70
2023/11/17 03:26:56;;;;;;;37.83;23.38;;;4.60;99.90;;;;;;5031495;28;20387;-71
2023/11/17 03:29:23;;;;;;;35.58;22.75;;;4.50;99.90;;;;;;5031181;28;20420;-70
2023/11/17 03:31:52;;;;;;;35.95;23.42;;;4.50;99.90;;;;;;5031049;28;20425;-71
2023/11/17 03:34:18;;;;;;;37.88;23.75;;;4.40;99.90;;;;;;5031015;28;20423;-71
2023/11/17 03:36:44;;;;;;;33.00;23.03;;;4.50;99.90;;;;;;5030244;28;20446;-70
2023/11/17 03:39:12;;;;;;;34.28;23.33;;;4.50;99.90;;;;;;5030999;28;20713;-71
2023/11/17 03:41:39;;;;;;;38.70;24.90;;;4.40;99.90;;;;;;5030910;28;20407;-70
2023/11/17 03:44:06;;;;;;;38.65;24.38;;;4.40;99.90;;;;;;5030970;28;20396;-70
2023/11/17 03:46:32;;;;;;;39.70;24.02;;;4.30;99.90;;;;;;5030825;28;20446;-70
2023/11/17 03:48:58;;;;;;;34.53;23.75;;;4.20;99.90;;;;;;5030559;28;20394;-71
2023/11/17 03:51:24;;;;;;;39.60;25.73;;;4.20;99.90;;;;;;5030777;28;20391;-72
2023/11/17 03:53:49;;;;;;;36.50;23.58;;;4.30;99.90;;;;;;5031029;28;20387;-71
2023/11/17 03:56:15;;;;;;;40.08;24.45;;;4.40;99.90;;;;;;5030749;28;20403;-71
2023/11/17 03:58:40;;;;;;;32.22;23.20;;;4.30;99.90;;;;;;5030537;28;20387;-71
2023/11/17 04:01:06;;;;;;;32.83;22.00;;;4.20;99.90;;;;;;5030828;28;20390;-71
2023/11/17 04:03:37;;;;;;;29.98;21.00;;;4.50;99.90;;;;;;5031290;28;20387;-71
2023/11/17 04:06:03;;;;;;;35.08;22.92;;;4.40;99.90;;;;;;5032750;28;20391;-71
2023/11/17 04:08:29;;;;;;;32.05;22.40;;;4.30;99.90;;;;;;5030997;28;20916;-71
2023/11/17 04:10:55;;;;;;;35.00;24.00;;;4.20;99.90;;;;;;5030405;28;20416;-71
2023/11/17 04:13:24;;;;;;;37.35;24.02;;;4.20;99.90;;;;;;5030509;28;20414;-71
2023/11/17 04:15:50;;;;;;;32.35;23.30;;;4.20;99.90;;;;;;5030300;28;20399;-71
2023/11/17 04:18:16;;;;;;;35.85;24.20;;;4.30;99.90;;;;;;5030091;28;20742;-71
2023/11/17 04:20:42;;;;;;;43.40;25.30;;;4.30;99.90;;;;;;5030487;28;20402;-71
2023/11/17 04:23:08;;;;;;;35.70;23.90;;;4.30;99.90;;;;;;5030742;28;20421;-71
2023/11/17 04:25:34;;;;;;;40.23;26.70;;;4.40;99.90;;;;;;5030759;28;20545;-71
2023/11/17 04:28:00;;;;;;;36.75;24.17;;;4.40;99.90;;;;;;5030751;28;20384;-71
2023/11/17 04:30:26;;;;;;;42.70;24.48;;;4.40;99.90;;;;;;5029892;28;20394;-70
2023/11/17 04:32:51;;;;;;;33.42;23.95;;;4.40;99.90;;;;;;5030287;28;20473;-70
2023/11/17 04:35:17;;;;;;;35.83;23.13;;;4.50;99.90;;;;;;5029922;28;20809;-70
2023/11/17 04:37:43;;;;;;;36.55;24.17;;;4.60;99.90;;;;;;5030097;28;20533;-70
2023/11/17 04:40:10;;;;;;;37.83;23.27;;;4.70;99.90;;;;;;5029926;28;20395;-69
2023/11/17 04:42:39;;;;;;;32.63;22.70;;;4.80;99.90;;;;;;5030284;28;20390;-69
2023/11/17 04:45:07;;;;;;;35.17;24.77;;;4.90;99.90;;;;;;5030072;28;20379;-69
2023/11/17 04:47:32;;;;;;;33.00;22.00;;;5.00;99.90;;;;;;5030934;28;20906;-69
2023/11/17 04:49:58;;;;;;;32.13;21.40;;;5.10;99.90;;;;;;5033773;28;20380;-70
2023/11/17 04:52:24;;;;;;;34.80;22.67;;;5.20;99.90;;;;;;5034090;28;20395;-70
2023/11/17 04:54:50;;;;;;;32.53;22.27;;;5.30;99.90;;;;;;5034670;28;20474;-70
2023/11/17 04:57:15;;;;;;;33.00;22.53;;;5.30;99.90;;;;;;5037276;28;20929;-70
2023/11/17 04:59:41;;;;;;;31.10;21.50;;;5.40;99.90;;;;;;5033667;28;20390;-70
2023/11/17 05:02:07;;;;;;;33.47;22.45;;;5.50;99.90;;;;;;5033810;28;20391;-70
2023/11/17 05:04:33;;;;;;;36.93;22.73;;;5.50;99.90;;;;;;5033947;28;20401;-70
2023/11/17 05:06:58;;;;;;;31.57;21.07;;;5.60;99.90;;;;;;5033714;28;20905;-70
2023/11/17 05:09:24;;;;;;;34.13;21.73;;;5.70;99.90;;;;;;5033947;28;20421;-70
2023/11/17 05:11:49;;;;;;;33.10;22.10;;;5.70;99.90;;;;;;5034389;28;20412;-70
2023/11/17 05:14:15;;;;;;;37.50;22.90;;;5.80;99.90;;;;;;5035137;28;20378;-72
2023/11/17 05:16:42;;;;;;;39.67;23.63;;;5.80;99.90;;;;;;5035298;28;20407;-70
2023/11/17 05:19:08;;;;;;;38.80;24.83;;;5.90;99.90;;;;;;5033592;28;20470;-70
2023/11/17 05:21:34;;;;;;;46.55;25.52;;;5.90;99.90;;;;;;5033950;28;20937;-70
2023/11/17 05:24:02;;;;;;;47.55;26.52;;;6.00;99.90;;;;;;5033380;28;20742;-70
2023/11/17 05:26:28;;;;;;;45.90;25.90;;;6.00;99.90;;;;;;5033101;28;20383;-70
2023/11/17 05:28:53;;;;;;;46.77;27.10;;;6.10;99.90;;;;;;5033184;28;20383;-70
2023/11/17 05:31:20;;;;;;;54.13;28.67;;;6.10;99.90;;;;;;5033673;28;20417;-70
2023/11/17 05:33:46;;;;;;;52.42;28.52;;;6.10;99.90;;;;;;5034689;28;20478;-69
2023/11/17 05:36:12;;;;;;;51.35;27.58;;;6.20;99.80;;;;;;5033817;28;20501;-70
2023/11/17 05:38:38;;;;;;;54.13;29.55;;;6.20;99.90;;;;;;5033440;28;20411;-70
2023/11/17 05:41:05;;;;;;;55.90;29.20;;;6.20;99.20;;;;;;5033711;28;20381;-70
2023/11/17 05:43:30;;;;;;;54.95;29.13;;;6.20;99.50;;;;;;5033512;28;20375;-70
2023/11/17 05:45:59;;;;;;;50.20;27.47;;;6.20;98.70;;;;;;5032511;28;20437;-71
2023/11/17 05:48:25;;;;;;;53.58;28.42;;;6.20;99.80;;;;;;5032646;28;20433;-69
2023/11/17 05:50:50;;;;;;;59.20;30.45;;;6.20;99.50;;;;;;5032681;28;20520;-70
2023/11/17 05:53:16;;;;;;;54.38;28.38;;;6.20;98.40;;;;;;5032888;28;20429;-70
2023/11/17 05:55:42;;;;;;;62.42;29.90;;;6.20;98.80;;;;;;5032666;28;20417;-70
2023/11/17 05:58:07;;;;;;;62.67;30.02;;;6.30;97.80;;;;;;5014375;28;20391;-70
2023/11/17 06:00:33;;;;;;;61.40;30.67;;;6.30;98.70;;;;;;5032347;28;20379;-70
2023/11/17 06:02:59;;;;;;;67.05;31.30;;;6.30;98.40;;;;;;5032682;28;20421;-69
2023/11/17 06:05:25;;;;;;;70.07;33.00;;;6.30;98.60;;;;;;5032711;28;20863;-71
2023/11/17 06:07:51;;;;;;;64.05;32.28;;;6.40;98.30;;;;;;5032352;28;20433;-72
2023/11/17 06:10:16;;;;;;;76.82;33.67;;;6.40;98.20;;;;;;5032715;28;20737;-71
2023/11/17 06:12:42;;;;;;;71.60;31.50;;;6.40;98.30;;;;;;5032549;28;20414;-71
2023/11/17 06:15:10;;;;;;;63.00;31.00;;;6.50;99.90;;;;;;5032427;28;20391;-71
2023/11/17 06:17:36;;;;;;;68.38;32.40;;;6.60;95.00;;;;;;5032602;28;20411;-71
2023/11/17 06:20:03;;;;;;;65.37;32.90;;;6.50;93.70;;;;;;5032070;28;20978;-71
2023/11/17 06:22:29;;;;;;;66.18;32.75;;;6.50;95.10;;;;;;5032843;28;20387;-71
2023/11/17 06:24:56;;;;;;;67.03;33.45;;;6.50;95.30;;;;;;5032600;28;20410;-71
2023/11/17 06:27:23;;;;;;;57.90;31.85;;;6.50;95.40;;;;;;5031835;28;20409;-71
2023/11/17 06:29:49;;;;;;;65.93;31.90;;;6.50;97.20;;;;;;5031707;28;20525;-70
2023/11/17 06:32:16;;;;;;;68.30;32.60;;;6.50;94.60;;;;;;5031921;28;20527;-71
2023/11/17 06:34:42;;;;;;;62.17;32.43;;;6.50;94.30;;;;;;5032908;28;20417;-71
2023/11/17 06:37:09;;;;;;;66.78;32.42;;;6.50;94.80;;;;;;5032862;28;20773;-70
2023/11/17 06:39:35;;;;;;;56.88;32.55;;;6.50;95.60;;;;;;5032079;28;20386;-70
2023/11/17 06:42:00;;;;;;;65.20;34.07;;;6.60;95.40;;;;;;5031867;28;20399;-70
2023/11/17 06:44:26;;;;;;;62.60;33.10;;;6.50;94.70;;;;;;5031944;28;20386;-70
2023/11/17 06:46:52;;;;;;;70.83;35.00;;;6.50;95.20;;;;;;5031823;28;20387;-70
2023/11/17 06:49:22;;;;;;;71.47;36.17;;;6.50;95.30;;;;;;5031480;28;20466;-69
2023/11/17 06:51:48;;;;;;;80.28;38.78;;;6.50;95.80;;;;;;5031688;28;20380;-70
2023/11/17 06:54:15;;;;;;;78.97;38.37;;;6.50;96.70;;;;;;5031775;28;20477;-70
2023/11/17 06:56:43;;;;;;;77.60;38.28;;;6.50;96.90;;;;;;5031738;28;20465;-70
2023/11/17 06:59:14;;;;;;;79.70;38.60;;;6.60;97.10;;;;;;5031317;28;20414;-70
2023/11/17 07:01:40;;;;;;;89.23;42.40;;;6.60;96.00;;;;;;5031212;28;20379;-70
2023/11/17 07:04:07;;;;;;;72.30;37.80;;;6.70;94.10;;;;;;5031452;28;20383;-70
2023/11/17 07:06:34;;;;;;;74.90;38.70;;;6.70;93.40;;;;;;5031195;28;20383;-71
2023/11/17 07:09:01;;;;;;;83.88;39.13;;;6.70;92.20;;;;;;5013261;28;20403;-71
2023/11/17 07:11:28;;;;;;;77.83;38.97;;;6.60;91.00;;;;;;5030903;28;20407;-71
2023/11/17 07:13:55;;;;;;;77.68;39.67;;;6.60;91.40;;;;;;5031218;28;20384;-71
2023/11/17 07:16:21;;;;;;;76.40;38.95;;;6.60;91.10;;;;;;5031260;28;20410;-71
2023/11/17 07:18:47;;;;;;;80.23;39.03;;;6.60;92.50;;;;;;5031048;28;20940;-70
2023/11/17 07:21:16;;;;;;;83.07;41.53;;;6.70;93.10;;;;;;5031216;28;20858;-70
2023/11/17 07:23:44;;;;;;;81.00;41.55;;;6.70;91.80;;;;;;5031036;28;20402;-71
2023/11/17 07:26:17;;;;;;;81.20;42.17;;;6.60;90.90;;;;;;5031675;28;20502;-71
2023/11/17 07:28:44;;;;;;;78.05;40.55;;;6.70;90.10;;;;;;5030978;28;20466;-71
2023/11/17 07:31:10;;;;;;;82.07;40.95;;;6.60;90.20;;;;;;5030974;28;20391;-70
2023/11/17 07:33:36;;;;;;;78.85;41.33;;;6.70;90.30;;;;;;5030909;28;20419;-71
2023/11/17 07:36:01;;;;;;;79.03;41.93;;;6.70;91.20;;;;;;5030810;28;20438;-71
2023/11/17 07:38:28;;;;;;;73.33;39.70;;;6.80;90.60;;;;;;5030618;28;20387;-71
2023/11/17 07:40:54;;;;;;;80.93;41.38;;;6.90;88.50;;;;;;5030681;28;20388;-71
2023/11/17 07:43:20;;;;;;;85.87;40.43;;;6.90;87.00;;;;;;5032064;28;20387;-71
2023/11/17 07:45:46;;;;;;;82.20;40.53;;;6.90;86.60;;;;;;5031026;28;20386;-72
2023/11/17 07:48:12;;;;;;;78.65;40.25;;;6.90;87.40;;;;;;5031145;28;20371;-72
2023/11/17 07:50:41;;;;;;;77.90;40.20;;;6.90;88.70;;;;;;5030862;28;20884;-72
2023/11/17 07:53:08;;;;;;;84.18;40.95;;;7.00;89.10;;;;;;5030778;28;20386;-71
2023/11/17 07:55:34;;;;;;;75.70;40.00;;;7.10;86.80;;;;;;5030554;28;20395;-73
2023/11/17 07:58:01;;;;;;;77.65;39.65;;;7.10;85.00;;;;;;5035831;28;20547;-71
2023/11/17 08:00:27;;;;;;;81.90;41.93;;;7.10;85.40;;;;;;5043728;28;20766;-72
2023/11/17 08:02:54;;;;;;;90.38;41.72;;;7.10;85.60;;;;;;5035978;28;20399;-70
2023/11/17 08:05:20;;;;;;;80.75;40.03;;;7.20;85.10;;;;;;5035199;28;20449;-71
2023/11/17 08:07:46;;;;;;;87.20;41.72;;;7.20;83.80;;;;;;5062216;28;20507;-71
2023/11/17 08:10:13;;;;;;;79.18;41.53;;;7.30;83.20;;;;;;5042016;28;20399;-70
2023/11/17 08:12:39;;;;;;;83.50;40.97;;;7.40;81.60;;;;;;5041432;28;20689;-70
2023/11/17 08:15:05;;;;;;;81.03;40.77;;;7.30;79.20;;;;;;5050492;28;20393;-70
2023/11/17 08:17:31;;;;;;;81.47;40.50;;;7.20;79.50;;;;;;5049422;28;20546;-70
2023/11/17 08:19:59;;;;;;;83.60;43.10;;;7.20;80.30;;;;;;5061190;28;20391;-69
2023/11/17 08:22:29;;;;;;;67.63;36.90;;;7.30;81.30;;;;;;5070448;28;20380;-69
2023/11/17 08:24:56;;;;;;;74.97;36.63;;;7.40;79.70;;;;;;5064271;28;20537;-71
2023/11/17 08:27:21;;;;;;;72.28;38.80;;;7.40;79.90;;;;;;5030284;28;20905;-71
2023/11/17 08:29:47;;;;;;;66.77;35.80;;;7.50;79.30;;;;;;5039813;28;20395;-70
2023/11/17 08:32:12;;;;;;;70.32;34.90;;;7.60;79.20;;;;;;5036538;28;20888;-70
2023/11/17 08:34:38;;;;;;;67.45;35.03;;;7.70;78.20;;;;;;5015496;28;20913;-69
2023/11/17 08:37:05;;;;;;;73.30;38.40;;;7.70;76.50;;;;;;5043323;28;20409;-70
2023/11/17 08:39:34;;;;;;;68.82;35.45;;;7.70;75.70;;;;;;5047522;28;20741;-70
2023/11/17 08:41:59;;;;;;;66.18;33.95;;;7.80;74.40;;;;;;5046690;28;20490;-69
2023/11/17 08:44:27;;;;;;;68.22;35.75;;;8.00;71.10;;;;;;5047808;28;20436;-70
2023/11/17 08:46:53;;;;;;;57.85;33.53;;;7.90;70.10;;;;;;5032504;28;20874;-70
2023/11/17 08:49:18;;;;;;;64.60;35.90;;;7.90;70.20;;;;;;5027497;28;20547;-70
2023/11/17 08:51:47;;;;;;;58.63;32.77;;;8.10;67.90;;;;;;5034764;28;20393;-70
2023/11/17 08:54:13;;;;;;;61.83;35.03;;;8.00;70.40;;;;;;5047409;28;20895;-70
2023/11/17 08:56:39;;;;;;;63.75;34.85;;;8.00;68.30;;;;;;5036245;28;20410;-69
2023/11/17 08:59:05;;;;;;;60.30;33.53;;;7.90;69.10;;;;;;5027683;28;20399;-70
2023/11/17 09:01:32;;;;;;;60.50;33.33;;;7.80;68.40;;;;;;5022166;28;20486;-70
2023/11/17 09:03:58;;;;;;;58.03;34.05;;;7.90;68.40;;;;;;5032237;28;20402;-70
2023/11/17 09:06:24;;;;;;;64.10;33.90;;;7.90;67.10;;;;;;5027751;28;20398;-70
2023/11/17 09:08:50;;;;;;;61.83;32.78;;;7.90;68.30;;;;;;5038911;28;20468;-70
2023/11/17 09:11:16;;;;;;;63.08;34.50;;;8.10;68.40;;;;;;5029318;28;20396;-70
2023/11/17 09:13:42;;;;;;;65.30;34.70;;;8.20;65.00;;;;;;5047497;28;20389;-70
2023/11/17 09:16:08;;;;;;;68.88;34.45;;;8.30;63.20;;;;;;5047120;28;20961;-70
2023/11/17 09:18:35;;;;;;;65.55;34.67;;;8.50;61.10;;;;;;5027301;28;20402;-70
2023/11/17 09:21:05;;;;;;;68.28;34.05;;;8.50;61.30;;;;;;5047015;28;20385;-70
2023/11/17 09:23:34;;;;;;;68.20;33.65;;;8.40;60.80;;;;;;5031726;28;20790;-71
2023/11/17 09:26:01;;;;;;;71.33;34.43;;;8.30;62.10;;;;;;5047064;28;20402;-69
2023/11/17 09:28:26;;;;;;;71.13;36.23;;;8.20;64.50;;;;;;5046365;28;20468;-70
2023/11/17 09:30:52;;;;;;;76.80;37.37;;;8.20;62.90;;;;;;5047508;28;20476;-69
2023/11/17 09:33:17;;;;;;;77.30;36.60;;;8.20;63.90;;;;;;5047917;28;20880;-69
2023/11/17 09:35:43;;;;;;;73.07;35.23;;;8.10;64.80;;;;;;5050963;28;20463;-69
2023/11/17 09:38:11;;;;;;;74.50;37.03;;;8.10;66.10;;;;;;5032660;28;20393;-69
2023/11/17 09:40:39;;;;;;;95.55;41.78;;;8.10;66.40;;;;;;5031312;28;20817;-69
2023/11/17 09:43:20;;;;;;;92.38;41.58;;;8.10;66.70;;;;;;5030921;28;20476;-69
2023/11/17 09:45:49;;;;;;;95.55;42.65;;;8.00;66.80;;;;;;5028914;28;20455;-70
2023/11/17 09:48:16;;;;;;;109.85;44.97;;;8.00;67.60;;;;;;5033082;28;20758;-70
2023/11/17 09:50:42;;;;;;;110.28;46.53;;;8.00;67.30;;;;;;5036403;28;20405;-70
2023/11/17 09:53:09;;;;;;;112.05;46.47;;;7.90;66.80;;;;;;5037905;28;20846;-70
2023/11/17 09:55:38;;;;;;;107.43;46.45;;;7.90;66.30;;;;;;5030843;28;20796;-70
2023/11/17 09:58:06;;;;;;;115.78;49.35;;;7.90;67.90;;;;;;5030958;28;20403;-71
2023/11/17 10:00:36;;;;;;;117.82;48.88;;;8.00;66.40;;;;;;5031936;28;20903;-70
2023/11/17 10:03:04;;;;;;;117.50;46.95;;;8.00;66.70;;;;;;5030545;28;20441;-70
2023/11/17 10:05:31;;;;;;;118.63;47.77;;;7.90;66.20;;;;;;5030701;28;20394;-69
2023/11/17 10:08:02;;;;;;;115.30;47.13;;;8.00;66.50;;;;;;5030493;28;20707;-69
2023/11/17 10:10:30;;;;;;;123.13;47.83;;;8.00;66.40;;;;;;5031764;28;20480;-68
2023/11/17 10:13:00;;;;;;;116.47;47.83;;;8.00;67.50;;;;;;5047168;28;20429;-68
2023/11/17 10:15:28;;;;;;;117.43;47.45;;;8.00;68.40;;;;;;5050405;28;20400;-69
2023/11/17 10:18:01;;;;;;;111.20;47.03;;;8.00;69.60;;;;;;5036528;28;20411;-69
2023/11/17 10:20:28;;;;;;;112.50;47.53;;;8.00;69.10;;;;;;5030537;28;20379;-70
2023/11/17 10:22:54;;;;;;;107.38;45.25;;;8.00;68.20;;;;;;5042724;28;20407;-69
2023/11/17 10:25:21;;;;;;;112.15;46.45;;;8.00;68.30;;;;;;5030833;28;20526;-70
2023/11/17 10:27:51;;;;;;;107.32;45.42;;;8.00;68.90;;;;;;5042423;28;20459;-71
2023/11/17 10:30:32;;;;;;;115.65;47.45;;;8.10;68.50;;;;;;5051501;28;20390;-70
2023/11/17 10:33:08;;;;;;;107.78;44.60;;;8.10;70.40;;;;;;5050947;28;20392;-70
2023/11/17 10:35:35;;;;;;;100.75;45.08;;;8.30;68.50;;;;;;5032261;28;20399;-70
2023/11/17 10:38:04;;;;;;;99.70;44.37;;;8.30;67.50;;;;;;5050114;28;20841;-69
2023/11/17 10:40:35;;;;;;;104.22;45.05;;;8.30;67.00;;;;;;5046396;28;20393;-70
2023/11/17 10:43:07;;;;;;;101.82;45.72;;;8.30;67.10;;;;;;5050409;28;20457;-70
2023/11/17 10:45:33;;;;;;;103.80;45.03;;;8.20;67.60;;;;;;5039825;28;20818;-70
2023/11/17 10:48:00;;;;;;;95.90;43.65;;;8.20;68.10;;;;;;5029322;28;20427;-69
2023/11/17 10:50:28;;;;;;;105.20;46.77;;;8.40;68.20;;;;;;5029889;28;20394;-70
2023/11/17 10:53:11;;;;;;;91.85;41.33;;;8.50;66.50;;;;;;5029702;28;20477;-70
2023/11/17 10:55:37;;;;;;;82.93;40.90;;;8.50;64.00;;;;;;5029553;28;20409;-69
2023/11/17 10:58:04;;;;;;;91.15;41.35;;;8.50;64.80;;;;;;5029445;28;20402;-68
2023/11/17 11:00:33;;;;;;;86.72;39.60;;;8.50;64.80;;;;;;5029244;28;20617;-69
2023/11/17 11:03:02;;;;;;;84.20;39.05;;;8.50;64.90;;;;;;5029512;28;20506;-69
2023/11/17 11:05:28;;;;;;;86.50;39.10;;;8.50;63.00;;;;;;5029769;28;20438;-69
2023/11/17 11:07:56;;;;;;;82.33;39.50;;;8.60;62.70;;;;;;5029509;28;20951;-68
2023/11/17 11:10:26;;;;;;;73.93;35.15;;;8.70;62.90;;;;;;5029015;28;20414;-69
2023/11/17 11:12:52;;;;;;;75.78;36.15;;;8.80;61.90;;;;;;5028907;28;20713;-69
2023/11/17 11:15:19;;;;;;;75.28;36.95;;;8.90;61.60;;;;;;5039952;28;20407;-70
2023/11/17 11:17:55;;;;;;;75.45;36.97;;;9.10;61.00;;;;;;5049122;28;20402;-70
2023/11/17 11:20:22;;;;;;;71.60;36.85;;;9.20;60.20;;;;;;5037450;28;20495;-69
2023/11/17 11:22:51;;;;;;;76.88;35.63;;;9.40;58.20;;;;;;5029681;28;20387;-70
2023/11/17 11:25:19;;;;;;;69.80;36.42;;;9.50;57.80;;;;;;5037413;28;20381;-70
2023/11/17 11:27:47;;;;;;;69.82;35.60;;;9.60;56.20;;;;;;5050221;28;20381;-70
2023/11/17 11:30:15;;;;;;;77.13;36.13;;;9.50;55.90;;;;;;5048782;28;20389;-71
2023/11/17 11:32:46;;;;;;;80.65;37.15;;;9.60;54.60;;;;;;5032565;28;20401;-71
2023/11/17 11:35:13;;;;;;;75.78;38.88;;;9.50;55.70;;;;;;5050828;28;20397;-70
2023/11/17 11:37:39;;;;;;;73.80;38.53;;;9.40;56.20;;;;;;5041116;28;20405;-72
2023/11/17 11:40:06;;;;;;;75.85;36.95;;;9.60;54.80;;;;;;5030595;28;20834;-71
2023/11/17 11:42:33;;;;;;;76.53;37.63;;;9.50;55.10;;;;;;5011432;28;21040;-70
2023/11/17 11:45:00;;;;;;;75.13;38.03;;;9.50;55.30;;;;;;5029011;28;20448;-69
2023/11/17 11:47:26;;;;;;;72.15;38.58;;;9.50;55.80;;;;;;5027020;28;20489;-70
2023/11/17 11:49:53;;;;;;;77.13;38.03;;;9.30;56.40;;;;;;5028301;28;20386;-71
2023/11/17 11:52:33;;;;;;;80.60;38.63;;;9.30;56.40;;;;;;5035605;28;20402;-70
2023/11/17 11:54:58;;;;;;;79.15;39.08;;;9.30;56.70;;;;;;5049087;28;20381;-71
2023/11/17 11:57:28;;;;;;;76.00;38.87;;;9.40;55.70;;;;;;5037009;28;20411;-69
2023/11/17 12:00:12;;;;;;;76.20;38.20;;;9.50;55.50;;;;;;5037206;28;20390;-70
2023/11/17 12:02:54;;;;;;;79.80;37.80;;;9.50;55.60;;;;;;5043382;28;20472;-70
2023/11/17 12:05:22;;;;;;;78.13;39.75;;;9.60;55.80;;;;;;5035703;28;20393;-71
2023/11/17 12:07:48;;;;;;;84.55;40.90;;;9.70;55.10;;;;;;5035123;28;20764;-70
2023/11/17 12:10:15;;;;;;;69.23;37.60;;;10.00;52.40;;;;;;5045339;28;20405;-71
2023/11/17 12:12:41;;;;;;;76.93;38.25;;;10.20;49.20;;;;;;5048081;28;20397;-71
2023/11/17 12:15:08;;;;;;;77.35;39.30;;;10.20;49.60;;;;;;5050849;28;20906;-71
2023/11/17 12:17:42;;;;;;;84.25;39.92;;;10.10;50.30;;;;;;5051440;28;20405;-70
2023/11/17 12:20:24;;;;;;;89.55;40.45;;;9.90;51.40;;;;;;5051944;28;20414;-71
2023/11/17 12:23:02;;;;;;;75.93;38.97;;;9.90;52.20;;;;;;5051566;28;20381;-72
2023/11/17 12:25:29;;;;;;;79.75;39.33;;;9.90;52.50;;;;;;5050483;28;20876;-71
2023/11/17 12:27:56;;;;;;;74.57;38.40;;;10.30;48.80;;;;;;5032452;28;20512;-71
2023/11/17 12:30:22;;;;;;;77.60;38.37;;;10.50;47.80;;;;;;5050598;28;20413;-72
2023/11/17 12:32:51;;;;;;;75.03;38.35;;;10.50;47.10;;;;;;5050844;28;20419;-72
2023/11/17 12:35:20;;;;;;;81.10;38.38;;;10.60;46.50;;;;;;5050746;28;20386;-71
2023/11/17 12:37:48;;;;;;;79.43;38.05;;;10.60;46.10;;;;;;5051307;28;20472;-72